createdAt,value
2022-09-15T00:01:10.534Z,16.30
2022-09-15T00:03:38.914Z,18.70
2022-09-15T00:06:07.444Z,11.70
2022-09-15T00:08:34.648Z,13.90
2022-09-15T00:11:15.212Z,15.90
2022-09-15T00:13:42.669Z,14.10
2022-09-15T00:16:14.990Z,18.90
2022-09-15T00:18:43.989Z,21.00
2022-09-15T00:21:18.147Z,18.20
2022-09-15T00:23:45.522Z,23.40
2022-09-15T00:26:15.207Z,11.40
2022-09-15T00:28:42.735Z,14.70
2022-09-15T00:31:13.844Z,19.70
2022-09-15T00:33:42.151Z,14.70
2022-09-15T00:36:12.181Z,14.50
2022-09-15T00:38:39.844Z,15.50
2022-09-15T00:41:10.059Z,15.60
2022-09-15T00:44:07.249Z,12.60
2022-09-15T00:46:41.132Z,6.80
2022-09-15T00:49:11.169Z,10.40
2022-09-15T00:52:03.202Z,11.80
2022-09-15T00:57:10.304Z,7.70
2022-09-15T00:59:41.679Z,20.10
2022-09-15T01:02:33.902Z,9.70
2022-09-15T01:05:05.030Z,11.20
2022-09-15T01:07:45.503Z,6.10
2022-09-15T01:10:22.707Z,11.20
2022-09-15T01:12:49.911Z,13.10
2022-09-15T01:15:17.287Z,12.70
2022-09-15T01:21:02.680Z,10.20
2022-09-15T01:23:54.613Z,14.20
2022-09-15T01:26:21.497Z,7.50
2022-09-15T01:29:22.672Z,9.80
2022-09-15T01:32:38.288Z,10.30
2022-09-15T01:35:21.108Z,8.90
2022-09-15T01:38:27.277Z,11.50
2022-09-15T01:41:09.484Z,7.30
2022-09-15T01:43:42.879Z,10.10
2022-09-15T01:46:12.339Z,5.90
2022-09-15T01:48:40.347Z,10.30
2022-09-15T01:51:08.828Z,14.30
2022-09-15T01:53:36.388Z,13.00
2022-09-15T01:56:07.945Z,15.80
2022-09-15T01:58:37.219Z,16.40
2022-09-15T02:01:12.509Z,20.70
2022-09-15T02:03:55.627Z,12.20
2022-09-15T02:06:26.748Z,14.80
2022-09-15T02:09:02.808Z,18.20
2022-09-15T02:11:30.575Z,17.10
2022-09-15T02:14:23.148Z,20.40
2022-09-15T02:16:54.328Z,17.40
2022-09-15T02:19:33.497Z,20.80
2022-09-15T02:22:04.743Z,10.40
2022-09-15T02:24:50.478Z,17.20
2022-09-15T02:27:23.215Z,24.90
2022-09-15T02:29:54.110Z,15.50
2022-09-15T02:32:23.855Z,16.60
2022-09-15T02:34:54.656Z,16.40
2022-09-15T02:37:24.496Z,19.10
2022-09-15T02:39:58.014Z,7.60
2022-09-15T02:42:26.996Z,11.90
2022-09-15T02:44:54.555Z,12.90
2022-09-15T02:47:21.601Z,11.10
2022-09-15T02:49:48.650Z,13.20
2022-09-15T02:52:16.092Z,12.40
2022-09-15T02:54:43.256Z,12.90
2022-09-15T02:57:10.508Z,8.60
2022-09-15T02:59:56.295Z,11.80
2022-09-15T03:02:24.917Z,9.30
2022-09-15T03:04:52.030Z,6.80
2022-09-15T03:07:19.997Z,7.60
2022-09-15T03:09:47.454Z,10.20
2022-09-15T03:12:14.808Z,8.60
2022-09-15T03:14:41.856Z,6.80
2022-09-15T03:17:08.906Z,5.90
2022-09-15T03:19:36.053Z,9.70
2022-09-15T03:22:03.407Z,7.30
2022-09-15T03:24:30.661Z,8.00
2022-09-15T03:26:57.725Z,9.50
2022-09-15T03:29:24.757Z,7.50
2022-09-15T03:31:52.292Z,6.40
2022-09-15T03:34:19.467Z,5.60
2022-09-15T03:36:46.618Z,9.00
2022-09-15T03:39:13.810Z,8.60
2022-09-15T03:41:40.816Z,9.90
2022-09-15T03:44:07.962Z,8.20
2022-09-15T03:46:35.624Z,14.80
2022-09-15T03:49:02.774Z,7.70
2022-09-15T03:51:29.784Z,10.40
2022-09-15T03:53:56.875Z,10.80
2022-09-15T03:56:27.532Z,8.00
2022-09-15T03:58:54.766Z,11.00
2022-09-15T04:01:23.281Z,16.30
2022-09-15T04:03:51.671Z,14.60
2022-09-15T04:06:23.373Z,16.90
2022-09-15T04:08:51.459Z,8.70
2022-09-15T04:11:21.017Z,12.70
2022-09-15T04:13:48.404Z,13.40
2022-09-15T04:16:18.704Z,10.80
2022-09-15T04:18:46.711Z,12.30
2022-09-15T04:21:16.426Z,12.50
2022-09-15T04:23:45.191Z,12.70
2022-09-15T04:26:30.133Z,12.80
2022-09-15T04:29:03.029Z,5.80
2022-09-15T04:31:31.905Z,8.40
2022-09-15T04:41:02.411Z,10.10
2022-09-15T04:43:30.386Z,13.20
2022-09-15T04:45:57.735Z,14.50
2022-09-15T04:48:25.706Z,9.40
2022-09-15T04:50:53.060Z,11.50
2022-09-15T04:53:20.619Z,15.90
2022-09-15T04:55:47.564Z,12.50
2022-09-15T04:58:14.820Z,13.90
2022-09-15T05:00:42.980Z,12.70
2022-09-15T05:03:11.266Z,11.70
2022-09-15T05:05:38.723Z,10.50
2022-09-15T05:08:07.618Z,7.20
2022-09-15T05:10:35.072Z,12.80
2022-09-15T05:13:01.920Z,16.00
2022-09-15T05:15:29.472Z,16.20
2022-09-15T05:17:57.647Z,12.90
2022-09-15T05:20:25.413Z,16.50
2022-09-15T05:22:52.241Z,13.10
2022-09-15T05:25:19.199Z,13.20
2022-09-15T05:27:46.556Z,7.80
2022-09-15T05:30:36.677Z,10.00
2022-09-15T05:33:01.026Z,14.70
2022-09-15T05:35:28.688Z,12.40
2022-09-15T05:37:56.274Z,21.00
2022-09-15T05:40:23.588Z,16.30
2022-09-15T05:42:50.854Z,15.60
2022-09-15T05:45:17.663Z,20.50
2022-09-15T05:47:44.539Z,10.00
2022-09-15T05:50:11.894Z,12.10
2022-09-15T05:52:38.744Z,9.80
2022-09-15T05:55:05.887Z,11.50
2022-09-15T05:57:33.142Z,9.10
2022-09-15T06:00:00.010Z,14.60
2022-09-15T06:02:26.848Z,21.60
2022-09-15T06:04:53.874Z,20.90
2022-09-15T06:07:20.819Z,22.20
2022-09-15T06:09:48.275Z,13.30
2022-09-15T06:12:17.574Z,13.40
2022-09-15T06:14:45.451Z,12.50
2022-09-15T06:17:12.799Z,11.30
2022-09-15T06:19:39.956Z,9.30
2022-09-15T06:22:06.891Z,7.40
2022-09-15T06:24:33.938Z,9.70
2022-09-15T06:27:00.887Z,9.50
2022-09-15T06:29:28.546Z,7.10
2022-09-15T06:31:56.808Z,5.80
2022-09-15T06:37:09.165Z,10.50
2022-09-15T06:39:36.095Z,9.70
2022-09-15T06:42:05.830Z,10.70
2022-09-15T06:44:35.204Z,12.70
2022-09-15T06:47:03.684Z,13.30
2022-09-15T06:49:31.346Z,14.40
2022-09-15T06:52:01.465Z,15.80
2022-09-15T06:54:28.616Z,8.20
2022-09-15T06:56:55.664Z,14.60
2022-09-15T06:59:24.246Z,14.20
2022-09-15T07:01:54.853Z,15.20
2022-09-15T07:04:22.334Z,14.80
2022-09-15T07:06:50.023Z,16.30
2022-09-15T07:09:17.145Z,19.00
2022-09-15T07:11:44.603Z,19.80
2022-09-15T07:14:12.161Z,15.60
2022-09-15T07:16:39.896Z,9.00
2022-09-15T07:19:07.182Z,9.40
2022-09-15T07:21:35.149Z,13.90
2022-09-15T07:24:06.411Z,18.20
2022-09-15T07:26:34.507Z,15.20
2022-09-15T07:29:05.407Z,15.20
2022-09-15T07:31:34.748Z,21.60
2022-09-15T07:34:02.776Z,20.30
2022-09-15T07:36:30.744Z,20.10
2022-09-15T07:38:58.200Z,13.10
2022-09-15T07:41:29.959Z,15.10
2022-09-15T07:43:59.339Z,17.10
2022-09-15T07:46:31.532Z,18.00
2022-09-15T07:49:00.115Z,18.20
2022-09-15T07:51:27.467Z,18.30
2022-09-15T07:53:54.824Z,18.80
2022-09-15T07:56:24.022Z,19.70
2022-09-15T07:58:51.348Z,21.30
2022-09-15T08:01:20.022Z,19.60
2022-09-15T08:03:49.465Z,11.00
2022-09-15T08:06:20.982Z,12.40
2022-09-15T08:08:48.578Z,13.10
2022-09-15T08:11:19.721Z,16.70
2022-09-15T08:13:49.123Z,20.40
2022-09-15T08:16:22.794Z,19.70
2022-09-15T08:18:53.063Z,21.00
2022-09-15T08:21:21.734Z,21.60
2022-09-15T08:23:55.280Z,18.50
2022-09-15T08:26:23.258Z,12.70
2022-09-15T08:28:50.252Z,11.50
2022-09-15T08:31:17.868Z,12.50
2022-09-15T08:33:51.204Z,12.80
2022-09-15T08:36:18.154Z,12.20
2022-09-15T08:38:46.223Z,12.80
2022-09-15T08:41:13.677Z,16.00
2022-09-15T08:44:10.525Z,19.60
2022-09-15T08:46:49.891Z,15.90
2022-09-15T08:49:47.501Z,14.80
2022-09-15T08:52:32.598Z,16.00
2022-09-15T08:55:05.581Z,17.00
2022-09-15T08:57:32.833Z,19.90
2022-09-15T08:59:59.781Z,11.30
2022-09-15T09:02:34.827Z,14.30
2022-09-15T09:05:16.093Z,12.50
2022-09-15T09:07:48.943Z,19.10
2022-09-15T09:10:30.696Z,19.90
2022-09-15T09:13:35.262Z,19.60
2022-09-15T09:16:25.282Z,17.20
2022-09-15T09:19:19.676Z,18.30
2022-09-15T09:21:53.142Z,23.80
2022-09-15T09:24:34.886Z,21.00
2022-09-15T09:29:39.093Z,12.60
2022-09-15T09:32:19.808Z,16.30
2022-09-15T09:34:54.116Z,16.20
2022-09-15T09:37:21.537Z,17.80
2022-09-15T09:39:48.733Z,19.20
2022-09-15T09:42:18.190Z,16.30
2022-09-15T09:44:46.774Z,11.30
2022-09-15T09:47:14.939Z,17.30
2022-09-15T09:49:49.054Z,18.80
2022-09-15T09:52:33.698Z,21.40
2022-09-15T09:55:15.941Z,14.10
2022-09-15T09:57:43.279Z,15.60
2022-09-15T10:00:34.082Z,11.90
2022-09-15T10:03:15.994Z,9.80
2022-09-15T10:05:44.095Z,7.90
2022-09-15T10:08:19.495Z,7.30
2022-09-15T10:10:55.247Z,8.60
2022-09-15T10:13:22.260Z,11.30
2022-09-15T10:15:56.106Z,7.10
2022-09-15T10:18:37.362Z,5.90
2022-09-15T10:21:07.346Z,6.00
2022-09-15T10:23:34.551Z,5.90
2022-09-15T10:26:33.669Z,6.00
2022-09-15T10:29:12.264Z,6.40
2022-09-15T10:31:39.449Z,5.10
2022-09-15T10:34:25.992Z,6.40
2022-09-15T10:37:24.511Z,5.30
2022-09-15T10:39:54.387Z,9.10
2022-09-15T10:42:42.520Z,7.10
2022-09-15T10:45:18.168Z,7.60
2022-09-15T10:48:02.653Z,7.60
2022-09-15T10:50:44.562Z,5.00
2022-09-15T10:53:45.683Z,6.10
2022-09-15T10:56:24.718Z,5.00
2022-09-15T10:58:51.531Z,8.00
2022-09-15T11:01:27.876Z,8.00
2022-09-15T11:04:22.860Z,5.70
2022-09-15T11:06:49.895Z,4.80
2022-09-15T11:09:42.384Z,4.30
2022-09-15T11:12:40.817Z,5.90
2022-09-15T11:15:19.746Z,4.50
2022-09-15T11:17:59.189Z,5.90
2022-09-15T11:20:43.294Z,4.60
2022-09-15T11:23:14.925Z,4.90
2022-09-15T11:28:21.250Z,6.20
2022-09-15T11:31:16.406Z,10.60
2022-09-15T11:33:54.672Z,7.20
2022-09-15T11:37:00.497Z,8.90
2022-09-15T11:39:34.656Z,6.40
2022-09-15T11:42:05.696Z,5.70
2022-09-15T11:44:35.099Z,4.80
2022-09-15T11:47:29.972Z,4.40
2022-09-15T11:50:11.487Z,5.20
2022-09-15T11:52:42.629Z,7.20
2022-09-15T11:55:23.400Z,3.30
2022-09-15T11:58:09.287Z,5.60
2022-09-15T12:00:48.321Z,3.90
2022-09-15T12:03:35.638Z,5.10
2022-09-15T12:06:27.775Z,5.30
2022-09-15T12:09:00.883Z,5.20
2022-09-15T12:11:34.892Z,5.00
2022-09-15T12:14:04.789Z,5.00
2022-09-15T12:16:34.501Z,4.70
2022-09-15T12:19:36.038Z,4.00
2022-09-15T12:22:28.560Z,5.80
2022-09-15T12:25:15.154Z,5.80
2022-09-15T12:27:42.151Z,6.80
2022-09-15T12:30:39.919Z,6.30
2022-09-15T12:33:41.732Z,10.10
2022-09-15T12:36:32.623Z,11.70
2022-09-15T12:39:02.342Z,8.90
2022-09-15T12:41:30.064Z,9.60
2022-09-15T12:44:04.504Z,8.60
2022-09-15T12:46:32.605Z,9.10
2022-09-15T12:49:02.775Z,13.90
2022-09-15T12:51:30.309Z,11.40
2022-09-15T12:54:06.901Z,8.60
2022-09-15T12:56:34.797Z,7.00
2022-09-15T12:59:14.518Z,7.10
2022-09-15T13:01:49.154Z,9.70
2022-09-15T13:04:45.111Z,8.40
2022-09-15T13:07:15.013Z,6.60
2022-09-15T13:10:06.794Z,14.00
2022-09-15T13:12:38.207Z,5.90
2022-09-15T13:15:14.140Z,6.40
2022-09-15T13:17:45.161Z,7.70
2022-09-15T13:20:22.984Z,6.30
2022-09-15T13:22:55.809Z,7.10
2022-09-15T13:25:28.568Z,6.90
2022-09-15T13:28:00.691Z,7.30
2022-09-15T13:30:55.630Z,4.30
2022-09-15T13:33:22.447Z,6.50
2022-09-15T13:35:51.098Z,6.10
2022-09-15T13:38:39.226Z,6.80
2022-09-15T13:41:14.831Z,5.30
2022-09-15T13:44:06.967Z,8.20
2022-09-15T13:46:59.694Z,5.70
2022-09-15T13:50:04.833Z,7.50
2022-09-15T13:52:49.800Z,5.70
2022-09-15T13:55:22.678Z,3.80
2022-09-15T14:01:01.659Z,4.70
2022-09-15T14:03:47.665Z,5.60
2022-09-15T14:06:18.964Z,4.10
2022-09-15T14:08:51.689Z,8.80
2022-09-15T14:11:27.914Z,5.50
2022-09-15T14:13:57.112Z,8.10
2022-09-15T14:16:27.266Z,4.60
2022-09-15T14:18:57.334Z,5.40
2022-09-15T14:21:27.472Z,5.20
2022-09-15T14:23:57.712Z,9.10
2022-09-15T14:26:28.664Z,5.10
2022-09-15T14:29:01.936Z,5.90
2022-09-15T14:31:38.449Z,6.30
2022-09-15T14:34:14.800Z,7.90
2022-09-15T14:36:42.427Z,6.20
2022-09-15T14:39:23.033Z,9.70
2022-09-15T14:41:50.492Z,8.90
2022-09-15T14:47:27.938Z,11.00
2022-09-15T14:50:19.286Z,12.20
2022-09-15T14:53:02.811Z,13.30
2022-09-15T14:55:58.727Z,10.70
2022-09-15T14:58:33.538Z,5.20
2022-09-15T15:01:04.976Z,4.70
2022-09-15T15:03:31.941Z,8.60
2022-09-15T15:06:25.359Z,7.50
2022-09-15T15:09:01.203Z,8.30
2022-09-15T15:11:31.235Z,7.10
2022-09-15T15:13:58.900Z,6.40
2022-09-15T15:16:30.297Z,6.80
2022-09-15T15:18:57.812Z,3.80
2022-09-15T15:21:44.752Z,5.80
2022-09-15T15:24:14.663Z,7.50
2022-09-15T15:26:44.706Z,5.50
2022-09-15T15:29:39.784Z,9.40
2022-09-15T15:32:12.899Z,11.00
2022-09-15T15:34:46.711Z,7.10
2022-09-15T15:37:33.336Z,4.80
2022-09-15T15:40:04.655Z,7.10
2022-09-15T15:42:31.913Z,9.00
2022-09-15T15:45:02.336Z,9.00
2022-09-15T15:47:36.145Z,9.30
2022-09-15T15:50:15.269Z,9.40
2022-09-15T15:52:43.445Z,8.90
2022-09-15T15:55:16.453Z,7.60
2022-09-15T15:57:44.055Z,6.60
2022-09-15T16:00:22.068Z,10.50
2022-09-15T16:02:51.386Z,7.50
2022-09-15T16:05:26.045Z,11.50
2022-09-15T16:07:55.655Z,8.90
2022-09-15T16:10:29.469Z,9.00
2022-09-15T16:12:57.787Z,7.10
2022-09-15T16:15:24.874Z,6.90
2022-09-15T16:17:52.252Z,7.60
2022-09-15T16:20:19.471Z,8.40
2022-09-15T16:22:46.322Z,8.60
2022-09-15T16:25:22.658Z,8.60
2022-09-15T16:27:49.457Z,11.60
2022-09-15T16:30:16.487Z,6.00
2022-09-15T16:32:43.511Z,7.20
2022-09-15T16:35:29.186Z,8.90
2022-09-15T16:37:56.965Z,7.70
2022-09-15T16:40:24.474Z,8.60
2022-09-15T16:42:51.763Z,9.10
2022-09-15T16:45:38.191Z,10.70
2022-09-15T16:48:08.889Z,6.00
2022-09-15T16:50:37.793Z,9.40
2022-09-15T16:53:14.195Z,12.40
2022-09-15T16:55:47.252Z,9.20
2022-09-15T16:58:16.812Z,8.20
2022-09-15T17:00:47.339Z,10.50
2022-09-15T17:03:17.062Z,10.20
2022-09-15T17:05:48.749Z,6.10
2022-09-15T17:08:17.958Z,6.20
2022-09-15T17:10:46.940Z,10.50
2022-09-15T17:13:20.158Z,8.10
2022-09-15T17:15:48.228Z,10.80
2022-09-15T17:18:15.876Z,9.00
2022-09-15T17:20:44.820Z,9.20
2022-09-15T17:23:23.608Z,7.40
2022-09-15T17:25:52.799Z,12.70
2022-09-15T17:28:22.897Z,14.60
2022-09-15T17:30:52.278Z,10.90
2022-09-15T17:33:20.133Z,11.30
2022-09-15T17:35:47.795Z,13.20
2022-09-15T17:38:15.818Z,12.50
2022-09-15T17:40:43.202Z,7.50
2022-09-15T17:43:15.567Z,10.70
2022-09-15T17:45:43.431Z,15.60
2022-09-15T17:48:10.778Z,12.20
2022-09-15T17:50:39.459Z,12.40
2022-09-15T17:53:15.761Z,17.10
2022-09-15T17:55:43.196Z,23.90
2022-09-15T17:58:11.095Z,13.30
2022-09-15T18:00:41.840Z,12.60
2022-09-15T18:03:20.515Z,18.20
2022-09-15T18:05:47.961Z,13.20
2022-09-15T18:08:16.429Z,12.30
2022-09-15T18:10:44.125Z,13.50
2022-09-15T18:13:17.807Z,13.60
2022-09-15T18:15:45.452Z,6.40
2022-09-15T18:18:15.950Z,9.40
2022-09-15T18:20:43.419Z,11.90
2022-09-15T18:23:13.862Z,10.80
2022-09-15T18:25:41.714Z,14.20
2022-09-15T18:28:09.440Z,12.90
2022-09-15T18:30:41.874Z,16.90
2022-09-15T18:33:22.002Z,8.40
2022-09-15T18:35:53.574Z,17.40
2022-09-15T18:38:21.363Z,20.20
2022-09-15T18:40:54.695Z,21.70
2022-09-15T18:43:24.605Z,21.10
2022-09-15T18:45:54.445Z,20.80
2022-09-15T18:48:21.364Z,20.20
2022-09-15T18:50:48.178Z,11.30
2022-09-15T18:53:15.424Z,15.10
2022-09-15T18:55:43.071Z,18.60
2022-09-15T18:58:10.821Z,13.00
2022-09-15T19:00:38.032Z,10.70
2022-09-15T19:03:13.439Z,14.20
2022-09-15T19:05:40.918Z,11.30
2022-09-15T19:08:08.623Z,13.70
2022-09-15T19:10:37.826Z,7.00
2022-09-15T19:13:05.477Z,8.60
2022-09-15T19:15:35.525Z,8.80
2022-09-15T19:18:02.754Z,8.60
2022-09-15T19:20:30.483Z,9.40
2022-09-15T19:22:57.976Z,8.70
2022-09-15T19:25:24.798Z,5.80
2022-09-15T19:27:51.790Z,7.60
2022-09-15T19:30:18.767Z,10.40
2022-09-15T19:32:45.798Z,9.40
2022-09-15T19:35:12.817Z,10.70
2022-09-15T19:37:41.478Z,10.50
2022-09-15T19:40:11.695Z,10.70
2022-09-15T19:42:40.822Z,6.20
2022-09-15T19:45:10.666Z,7.40
2022-09-15T19:47:38.778Z,9.00
2022-09-15T19:50:07.454Z,8.60
2022-09-15T19:52:34.796Z,9.10
2022-09-15T19:55:04.472Z,9.10
2022-09-15T19:57:31.331Z,9.50
2022-09-15T19:59:58.428Z,5.00
2022-09-15T20:02:25.458Z,6.30
2022-09-15T20:07:37.723Z,5.80
2022-09-15T20:10:05.841Z,8.50
2022-09-15T20:12:32.763Z,4.90
2022-09-15T20:15:00.485Z,5.30
2022-09-15T20:17:27.817Z,6.90
2022-09-15T20:19:54.923Z,7.70
2022-09-15T20:22:22.440Z,8.00
2022-09-15T20:24:49.680Z,8.40
2022-09-15T20:27:16.560Z,5.00
2022-09-15T20:29:43.448Z,6.20
2022-09-15T20:34:56.239Z,5.30
2022-09-15T20:37:23.292Z,8.90
2022-09-15T20:39:50.811Z,5.90
2022-09-15T20:42:18.131Z,7.30
2022-09-15T20:44:45.107Z,3.50
2022-09-15T20:47:12.056Z,3.70
2022-09-15T20:49:38.871Z,5.70
2022-09-15T20:52:06.916Z,5.40
2022-09-15T20:54:34.103Z,8.80
2022-09-15T20:57:01.120Z,5.50
2022-09-15T20:59:28.885Z,5.80
2022-09-15T21:01:56.206Z,4.60
2022-09-15T21:04:23.820Z,5.30
2022-09-15T21:06:50.832Z,7.50
2022-09-15T21:09:17.760Z,5.80
2022-09-15T21:11:45.751Z,5.40
2022-09-15T21:14:14.942Z,7.00
2022-09-15T21:16:44.428Z,5.90
2022-09-15T21:19:12.196Z,4.90
2022-09-15T21:21:39.294Z,3.80
2022-09-15T21:24:08.236Z,6.60
2022-09-15T21:26:56.924Z,6.30
2022-09-15T21:29:24.361Z,5.30
2022-09-15T21:31:51.566Z,5.90
2022-09-15T21:34:19.631Z,5.10
2022-09-15T21:36:46.815Z,3.60
2022-09-15T21:39:13.736Z,3.80
2022-09-15T21:41:41.015Z,3.20
2022-09-15T21:44:08.811Z,5.00
2022-09-15T21:46:36.520Z,3.00
2022-09-15T21:49:03.362Z,4.60
2022-09-15T21:51:30.366Z,3.90
2022-09-15T21:53:58.967Z,3.70
2022-09-15T21:56:27.341Z,2.70
2022-09-15T21:58:54.835Z,4.10
2022-09-15T22:01:25.167Z,2.20
2022-09-15T22:03:55.372Z,2.70
2022-09-15T22:06:29.648Z,2.70
2022-09-15T22:09:06.288Z,3.00
2022-09-15T22:11:34.767Z,1.80
2022-09-15T22:14:03.318Z,1.80
2022-09-15T22:16:30.290Z,2.70
2022-09-15T22:18:57.231Z,3.70
2022-09-15T22:21:26.716Z,2.90
2022-09-15T22:23:55.762Z,3.30
2022-09-15T22:26:28.116Z,3.10
2022-09-15T22:28:55.989Z,1.70
2022-09-15T22:31:24.199Z,3.20
2022-09-15T22:33:52.029Z,4.30
2022-09-15T22:36:28.873Z,2.00
2022-09-15T22:39:04.538Z,2.60
2022-09-15T22:41:35.806Z,3.40
2022-09-15T22:44:04.118Z,2.40
2022-09-15T22:46:33.275Z,2.90
2022-09-15T22:49:00.981Z,2.50
2022-09-15T22:51:28.324Z,3.80
2022-09-15T22:53:56.362Z,2.20
2022-09-15T22:56:25.460Z,3.90
2022-09-15T22:58:52.427Z,2.10
2022-09-15T23:01:22.603Z,1.90
2022-09-15T23:03:55.130Z,1.30
2022-09-15T23:06:23.806Z,1.80
2022-09-15T23:08:55.939Z,1.90
2022-09-15T23:11:25.327Z,3.30
2022-09-15T23:13:54.173Z,4.40
2022-09-15T23:16:22.734Z,2.10
2022-09-15T23:18:51.857Z,3.40
2022-09-15T23:21:19.191Z,1.90
2022-09-15T23:23:48.221Z,1.80
2022-09-15T23:26:20.272Z,2.90
2022-09-15T23:28:48.919Z,3.10
2022-09-15T23:31:16.904Z,6.30
2022-09-15T23:33:44.026Z,2.50
2022-09-15T23:36:14.370Z,2.80
2022-09-15T23:38:43.875Z,2.50
2022-09-15T23:41:12.171Z,3.40
2022-09-15T23:43:39.405Z,3.40
2022-09-15T23:46:07.357Z,6.90
2022-09-15T23:48:34.954Z,3.50
2022-09-15T23:51:02.488Z,4.00
2022-09-15T23:53:29.476Z,4.30
2022-09-15T23:55:56.266Z,3.00
2022-09-15T23:58:23.362Z,4.40
